Time;durP1;ratioP1;P1;durP2;ratioP2;P2;SDS_P1;SDS_P2;PMS_P1;PMS_P2;Temp;Humidity;BMP_temperature;BMP_pressure;BME280_temperature;BME280_humidity;BME280_pressure;Samples;Min_cycle;Max_cycle;Signal;HPM_P1;HPM_P2
2023/04/06 00:02:36;;;;;;;6.40;5.80;;;15.60;60.10;;;;;;4224177;28;20050;-65
2023/04/06 00:05:17;;;;;;;6.00;5.47;;;15.60;59.90;;;;;;4225232;28;20078;-65
2023/04/06 00:07:58;;;;;;;6.43;5.72;;;15.60;59.90;;;;;;4225636;28;20500;-65
2023/04/06 00:10:40;;;;;;;6.18;5.57;;;15.50;59.80;;;;;;4216854;28;20051;-65
2023/04/06 00:13:21;;;;;;;6.38;5.78;;;15.50;60.00;;;;;;4207450;28;20189;-65
2023/04/06 00:16:02;;;;;;;6.63;5.95;;;15.50;60.30;;;;;;4208498;28;20498;-65
2023/04/06 00:18:44;;;;;;;7.87;5.63;;;15.50;60.30;;;;;;4207904;28;20054;-66
2023/04/06 00:21:26;;;;;;;6.22;5.63;;;15.50;60.20;;;;;;4206834;28;20070;-65
2023/04/06 00:24:08;;;;;;;6.80;5.88;;;15.50;60.10;;;;;;4209612;28;20047;-65
2023/04/06 00:26:49;;;;;;;6.88;6.15;;;15.60;60.40;;;;;;4225189;28;20058;-65
2023/04/06 00:29:30;;;;;;;8.45;6.28;;;15.60;60.40;;;;;;4225109;28;20054;-65
2023/04/06 00:32:11;;;;;;;6.18;5.57;;;15.70;60.10;;;;;;4224145;28;20046;-65
2023/04/06 00:34:53;;;;;;;7.80;5.85;;;15.80;59.80;;;;;;4225446;28;20169;-65
2023/04/06 00:37:34;;;;;;;6.93;5.80;;;15.90;59.70;;;;;;4223942;28;20042;-65
2023/04/06 00:40:16;;;;;;;6.22;5.63;;;15.90;59.50;;;;;;4190359;28;20375;-65
2023/04/06 00:42:56;;;;;;;7.15;6.18;;;15.90;59.70;;;;;;4191406;28;20052;-65
2023/04/06 00:45:39;;;;;;;6.93;6.22;;;15.90;59.60;;;;;;4191689;28;20747;-65
2023/04/06 00:48:21;;;;;;;6.82;6.18;;;16.00;59.50;;;;;;4224192;28;20123;-65
2023/04/06 00:51:03;;;;;;;7.80;6.18;;;16.00;59.50;;;;;;4208529;28;20051;-65
2023/04/06 00:53:44;;;;;;;8.18;5.97;;;16.00;59.40;;;;;;4207957;28;20055;-65
2023/04/06 00:56:27;;;;;;;7.43;6.72;;;16.00;59.30;;;;;;4207063;28;20055;-65
2023/04/06 00:59:08;;;;;;;7.55;6.25;;;16.00;59.30;;;;;;4207645;28;20399;-65
2023/04/06 01:01:50;;;;;;;;;;;16.00;59.50;;;;;;4207522;28;20145;-65
2023/04/06 01:04:43;;;;;;;7.00;6.30;;;15.90;59.60;;;;;;4208430;28;19934;-64
2023/04/06 01:07:32;;;;;;;7.28;6.57;;;15.90;59.80;;;;;;4223987;28;20075;-65
2023/04/06 01:10:26;;;;;;;7.95;6.32;;;15.90;59.60;;;;;;4226907;27;20054;-65
2023/04/06 01:13:13;;;;;;;8.40;6.43;;;15.90;59.40;;;;;;4226617;28;20054;-65
2023/04/06 01:16:00;;;;;;;7.72;6.43;;;15.80;59.70;;;;;;4228148;27;20484;-65
2023/04/06 01:18:55;;;;;;;6.57;5.97;;;15.90;59.90;;;;;;4197835;28;20055;-66
2023/04/06 01:21:42;;;;;;;10.27;7.32;;;15.90;59.80;;;;;;4203790;28;20584;-66
2023/04/06 01:24:45;;;;;;;8.98;6.47;;;15.90;59.70;;;;;;4211016;28;20449;-66
2023/04/06 01:27:30;;;;;;;9.13;7.10;;;15.90;59.70;;;;;;4211042;28;20486;-66
2023/04/06 01:30:26;;;;;;;8.45;6.43;;;15.90;59.70;;;;;;4210502;28;20075;-65
2023/04/06 01:33:12;;;;;;;7.45;6.55;;;15.90;59.70;;;;;;4198620;28;20060;-66
2023/04/06 01:36:11;;;;;;;7.55;6.85;;;15.90;59.70;;;;;;4209516;28;20051;-65
2023/04/06 01:38:52;;;;;;;8.25;6.70;;;15.80;59.60;;;;;;4209693;28;20183;-66
2023/04/06 01:41:42;;;;;;;8.10;7.30;;;15.80;59.50;;;;;;4209478;28;20059;-65
2023/04/06 01:44:23;;;;;;;7.75;6.93;;;15.80;59.50;;;;;;4209375;28;20047;-65
2023/04/06 01:47:15;;;;;;;7.40;6.28;;;15.70;59.60;;;;;;4203847;28;20101;-66
2023/04/06 01:49:57;;;;;;;8.20;7.40;;;15.70;60.00;;;;;;4192431;28;20048;-65
2023/04/06 01:52:39;;;;;;;7.70;6.90;;;15.60;60.10;;;;;;4194133;28;20391;-65
2023/04/06 01:55:21;;;;;;;8.93;7.53;;;15.70;60.00;;;;;;4210424;28;20136;-65
2023/04/06 01:58:23;;;;;;;7.60;6.90;;;15.80;60.10;;;;;;4210495;28;20407;-65
2023/04/06 02:01:04;;;;;;;8.02;7.10;;;15.80;60.10;;;;;;4209419;28;20434;-65
2023/04/06 02:03:56;;;;;;;9.55;7.78;;;15.90;59.90;;;;;;4209123;28;20197;-65
2023/04/06 02:06:37;;;;;;;8.13;7.30;;;16.00;59.70;;;;;;4216510;28;20131;-65
2023/04/06 02:09:21;;;;;;;8.07;7.32;;;16.00;59.80;;;;;;4225940;28;20346;-65
2023/04/06 02:12:02;;;;;;;11.70;7.72;;;16.10;59.60;;;;;;4226027;28;20043;-65
2023/04/06 02:14:46;;;;;;;8.93;6.53;;;16.10;59.40;;;;;;4225965;28;20049;-65
2023/04/06 02:17:28;;;;;;;8.05;7.25;;;16.20;59.20;;;;;;4225696;28;20058;-65
2023/04/06 02:20:10;;;;;;;8.32;7.57;;;16.20;59.20;;;;;;4220661;27;20121;-65
2023/04/06 02:22:51;;;;;;;8.32;7.53;;;16.30;59.20;;;;;;4212252;27;20054;-65
2023/04/06 02:25:32;;;;;;;7.38;6.70;;;16.20;59.10;;;;;;4226913;27;20058;-65
2023/04/06 02:28:13;;;;;;;7.63;6.93;;;16.30;59.00;;;;;;4225593;28;20050;-65
2023/04/06 02:30:55;;;;;;;8.30;7.43;;;16.30;59.10;;;;;;4226848;27;20412;-65
2023/04/06 02:33:40;;;;;;;9.52;7.40;;;16.20;59.00;;;;;;4205656;28;20290;-65
2023/04/06 02:36:21;;;;;;;9.63;6.85;;;16.30;59.00;;;;;;4191950;28;20056;-64
2023/04/06 02:39:03;;;;;;;7.38;6.75;;;16.30;59.10;;;;;;4179320;28;20063;-65
2023/04/06 02:41:44;;;;;;;7.78;6.93;;;16.20;58.90;;;;;;4191846;28;20059;-65
2023/04/06 02:44:29;;;;;;;7.72;6.93;;;16.20;58.90;;;;;;4191815;28;20060;-65
2023/04/06 02:47:11;;;;;;;7.95;7.20;;;16.10;59.20;;;;;;4192949;28;20503;-65
2023/04/06 02:49:55;;;;;;;7.93;7.00;;;16.10;59.40;;;;;;4191870;28;20537;-65
2023/04/06 02:52:35;;;;;;;7.53;6.82;;;16.20;59.50;;;;;;4222246;27;20164;-65
2023/04/06 02:55:17;;;;;;;7.78;6.88;;;16.20;59.20;;;;;;4208748;28;20093;-65
2023/04/06 02:57:59;;;;;;;7.75;6.95;;;16.20;59.10;;;;;;4208485;28;20116;-65
2023/04/06 03:00:46;;;;;;;9.20;7.32;;;16.20;59.20;;;;;;4208362;28;20097;-65
2023/04/06 03:03:28;;;;;;;7.85;7.13;;;16.20;59.00;;;;;;4208333;28;20054;-65
2023/04/06 03:06:10;;;;;;;7.80;7.10;;;16.20;59.10;;;;;;4208110;28;20051;-66
2023/04/06 03:08:51;;;;;;;8.40;6.90;;;16.20;59.50;;;;;;4208103;28;20193;-65
2023/04/06 03:11:32;;;;;;;8.07;7.13;;;16.20;59.50;;;;;;4208679;28;20423;-64
2023/04/06 03:14:13;;;;;;;8.10;6.95;;;16.30;59.20;;;;;;4225635;28;20042;-64
2023/04/06 03:16:54;;;;;;;10.35;8.20;;;16.30;59.00;;;;;;4224843;27;20119;-66
2023/04/06 03:19:38;;;;;;;9.20;7.68;;;16.30;58.90;;;;;;4225024;28;20120;-65
2023/04/06 03:22:20;;;;;;;9.05;7.30;;;16.30;58.70;;;;;;4222840;28;20070;-65
2023/04/06 03:25:01;;;;;;;7.80;7.05;;;16.20;58.70;;;;;;4208088;28;20399;-65
2023/04/06 03:27:44;;;;;;;7.90;6.97;;;16.20;58.80;;;;;;4218920;28;20055;-65
2023/04/06 03:30:30;;;;;;;8.13;7.32;;;16.30;58.90;;;;;;4224754;28;20196;-66
2023/04/06 03:33:11;;;;;;;8.18;7.40;;;16.30;58.90;;;;;;4224886;28;20059;-67
2023/04/06 03:36:05;;;;;;;8.43;7.43;;;16.30;58.70;;;;;;4224587;28;21447;-65
2023/04/06 03:38:49;;;;;;;8.00;7.28;;;16.30;58.70;;;;;;4222839;28;20363;-68
2023/04/06 03:41:30;;;;;;;8.02;7.28;;;16.30;58.70;;;;;;4225393;28;20054;-65
2023/04/06 03:44:17;;;;;;;7.95;7.15;;;16.20;58.90;;;;;;4224444;28;20051;-65
2023/04/06 03:46:58;;;;;;;9.07;7.10;;;16.20;58.90;;;;;;4224125;28;20199;-65
2023/04/06 03:49:39;;;;;;;8.48;7.53;;;16.20;58.80;;;;;;4224360;28;20090;-65
2023/04/06 03:52:25;;;;;;;7.75;7.00;;;16.20;58.90;;;;;;4224193;28;20074;-65
2023/04/06 03:55:07;;;;;;;8.13;7.32;;;16.10;58.80;;;;;;4208924;28;20434;-67
2023/04/06 03:57:50;;;;;;;8.15;7.20;;;16.00;58.90;;;;;;4207459;28;20567;-65
2023/04/06 04:00:32;;;;;;;8.82;6.70;;;16.00;59.10;;;;;;4208516;28;20062;-65
2023/04/06 04:03:13;;;;;;;8.63;7.80;;;15.90;59.20;;;;;;4208635;28;20482;-68
2023/04/06 04:05:55;;;;;;;9.02;7.90;;;15.80;59.30;;;;;;4208528;28;20433;-65
2023/04/06 04:08:39;;;;;;;10.35;7.70;;;15.70;59.20;;;;;;4207050;28;20050;-65
2023/04/06 04:11:21;;;;;;;8.07;7.35;;;15.70;59.40;;;;;;4224175;27;20164;-65
2023/04/06 04:14:09;;;;;;;9.90;7.63;;;15.60;59.60;;;;;;4223978;28;20050;-65
2023/04/06 04:16:50;;;;;;;13.25;8.30;;;15.50;59.90;;;;;;4223504;28;20050;-65
2023/04/06 04:19:32;;;;;;;7.90;7.13;;;15.50;60.40;;;;;;4224005;28;20066;-67
2023/04/06 04:22:12;;;;;;;8.25;7.50;;;15.50;60.40;;;;;;4222576;28;20045;-65
2023/04/06 04:24:55;;;;;;;8.45;7.55;;;15.50;60.30;;;;;;4206405;28;20058;-67
2023/04/06 04:27:36;;;;;;;8.30;7.40;;;15.50;60.00;;;;;;4208128;28;20505;-65
2023/04/06 04:30:17;;;;;;;9.18;7.53;;;15.50;60.10;;;;;;4206953;28;20127;-66
2023/04/06 04:32:58;;;;;;;7.80;7.00;;;15.50;60.00;;;;;;4200618;28;20046;-65
2023/04/06 04:35:40;;;;;;;11.52;7.45;;;15.40;59.90;;;;;;4223792;28;20059;-65
2023/04/06 04:38:24;;;;;;;7.93;7.22;;;15.40;59.90;;;;;;4223544;28;20058;-65
2023/04/06 04:41:09;;;;;;;10.85;7.85;;;15.40;60.00;;;;;;4223646;28;20083;-65
2023/04/06 04:43:53;;;;;;;8.18;7.35;;;15.40;60.00;;;;;;4224988;28;20050;-65
2023/04/06 04:46:37;;;;;;;10.20;7.43;;;15.40;60.10;;;;;;4227306;27;20173;-66
2023/04/06 04:49:19;;;;;;;8.50;7.70;;;15.40;60.30;;;;;;4210412;28;20054;-64
2023/04/06 04:52:03;;;;;;;9.57;7.30;;;15.40;60.50;;;;;;4210451;28;20517;-64
2023/04/06 04:54:54;;;;;;;7.82;7.03;;;15.40;60.20;;;;;;4194178;28;20407;-65
2023/04/06 04:57:41;;;;;;;9.13;7.20;;;15.50;60.30;;;;;;4193460;28;20063;-65
2023/04/06 05:00:22;;;;;;;11.75;7.88;;;15.50;60.30;;;;;;4193596;28;20055;-64
2023/04/06 05:03:08;;;;;;;9.82;7.15;;;15.60;60.30;;;;;;4200741;28;20498;-64
2023/04/06 05:05:53;;;;;;;8.30;7.40;;;15.70;60.00;;;;;;4227102;28;20177;-64
2023/04/06 05:08:36;;;;;;;9.48;7.47;;;15.80;59.60;;;;;;4227187;28;20066;-66
2023/04/06 05:11:18;;;;;;;;;;;16.00;59.60;;;;;;4226084;28;20091;-64
2023/04/06 05:14:08;;;;;;;8.48;7.68;;;16.10;59.60;;;;;;4209992;28;19931;-65
2023/04/06 05:16:50;;;;;;;7.35;6.20;;;16.20;59.30;;;;;;4211250;28;20047;-66
2023/04/06 05:19:31;;;;;;;8.55;7.57;;;16.20;58.80;;;;;;4214383;28;20477;-64
2023/04/06 05:22:14;;;;;;;7.90;7.00;;;16.30;58.60;;;;;;4207881;28;20136;-65
2023/04/06 05:24:57;;;;;;;8.18;7.32;;;16.40;58.50;;;;;;4209761;28;20050;-66
2023/04/06 05:27:38;;;;;;;7.78;6.85;;;16.30;58.30;;;;;;4209523;28;20070;-66
2023/04/06 05:30:28;;;;;;;9.00;8.10;;;16.30;59.20;;;;;;4192684;28;20237;-65
2023/04/06 05:33:10;;;;;;;9.32;7.55;;;16.20;58.50;;;;;;4193027;28;20056;-65
2023/04/06 05:36:11;;;;;;;10.23;7.50;;;16.20;58.90;;;;;;4211335;28;20059;-65
2023/04/06 05:38:57;;;;;;;10.05;7.45;;;16.20;59.10;;;;;;4204344;28;20051;-65
2023/04/06 05:41:49;;;;;;;7.65;6.78;;;16.20;58.80;;;;;;4209156;28;20490;-64
2023/04/06 05:44:38;;;;;;;10.80;8.02;;;16.30;58.40;;;;;;4209692;28;20190;-66
2023/04/06 05:47:25;;;;;;;14.85;7.40;;;16.40;57.90;;;;;;4209635;28;20157;-66
2023/04/06 05:50:16;;;;;;;10.55;7.82;;;16.50;57.60;;;;;;4202097;28;20097;-67
2023/04/06 05:52:56;;;;;;;;;;;16.50;57.40;;;;;;4214575;28;20047;-67
2023/04/06 05:55:41;;;;;;;7.70;6.80;;;16.60;57.50;;;;;;4208243;28;19943;-68
2023/04/06 05:58:30;;;;;;;8.48;7.40;;;16.50;57.30;;;;;;4202033;28;20081;-68
2023/04/06 06:01:12;;;;;;;7.60;6.90;;;16.40;57.20;;;;;;4208982;28;20502;-68
2023/04/06 06:04:01;;;;;;;8.40;7.00;;;16.40;57.30;;;;;;4209312;28;20093;-68
2023/04/06 06:06:44;;;;;;;8.02;6.75;;;16.40;57.20;;;;;;4216087;28;20169;-68
2023/04/06 06:09:32;;;;;;;10.60;6.75;;;16.50;57.10;;;;;;4211106;28;20564;-67
2023/04/06 06:12:34;;;;;;;9.13;6.40;;;16.50;57.10;;;;;;4192192;28;20072;-68
2023/04/06 06:15:15;;;;;;;6.93;6.35;;;16.50;57.00;;;;;;4193325;28;20142;-68
2023/04/06 06:18:00;;;;;;;8.95;6.80;;;16.60;56.60;;;;;;4192290;28;20055;-68
2023/04/06 06:20:42;;;;;;;11.43;6.57;;;16.60;56.30;;;;;;4193465;28;20078;-68
2023/04/06 06:23:24;;;;;;;9.40;6.90;;;16.60;55.90;;;;;;4192272;28;20106;-68
2023/04/06 06:26:05;;;;;;;7.68;6.28;;;16.70;55.90;;;;;;4192422;28;20501;-67
2023/04/06 06:28:47;;;;;;;6.85;6.10;;;16.70;55.90;;;;;;4198618;28;20367;-58
2023/04/06 06:31:27;;;;;;;8.95;6.70;;;16.70;55.60;;;;;;4209080;28;20493;-59
2023/04/06 06:34:08;;;;;;;6.90;6.22;;;16.70;55.50;;;;;;4201346;28;20494;-59
2023/04/06 06:36:54;;;;;;;11.80;6.45;;;16.80;55.20;;;;;;4192006;28;20047;-59
2023/04/06 06:39:35;;;;;;;8.18;5.80;;;16.70;55.10;;;;;;4192169;28;20055;-59
2023/04/06 06:42:16;;;;;;;9.10;6.55;;;16.70;55.00;;;;;;4191858;28;20071;-58
2023/04/06 06:45:21;;;;;;;7.32;6.63;;;16.70;55.10;;;;;;4192927;28;20047;-59
2023/04/06 06:48:02;;;;;;;10.73;6.43;;;16.70;54.80;;;;;;4191770;28;20054;-59
2023/04/06 06:50:42;;;;;;;6.67;5.97;;;16.70;54.90;;;;;;4191978;28;20056;-59
2023/04/06 06:53:27;;;;;;;7.40;6.70;;;16.70;55.20;;;;;;4191810;28;20051;-59
2023/04/06 06:56:09;;;;;;;8.05;6.30;;;16.80;54.80;;;;;;4191530;28;20050;-59
2023/04/06 06:58:50;;;;;;;7.05;6.45;;;16.80;54.70;;;;;;4198481;28;20494;-59
2023/04/06 07:01:33;;;;;;;9.00;6.32;;;16.80;54.60;;;;;;4209651;28;20541;-59
2023/04/06 07:04:15;;;;;;;7.20;6.60;;;16.80;54.70;;;;;;4209258;28;20062;-58
2023/04/06 07:06:56;;;;;;;7.10;6.47;;;16.70;55.40;;;;;;4212908;28;20055;-58
2023/04/06 07:09:38;;;;;;;7.50;6.80;;;16.70;55.40;;;;;;4223612;27;20129;-58
2023/04/06 07:12:20;;;;;;;10.10;7.57;;;16.70;55.00;;;;;;4224840;28;20047;-58
2023/04/06 07:15:02;;;;;;;7.15;6.28;;;16.70;54.80;;;;;;4197404;28;20193;-59
2023/04/06 07:17:44;;;;;;;11.32;6.53;;;16.70;54.60;;;;;;4208110;28;20055;-65
2023/04/06 07:20:27;;;;;;;6.82;6.13;;;16.70;54.60;;;;;;4192045;28;20059;-64
2023/04/06 07:23:08;;;;;;;7.50;6.80;;;16.70;54.50;;;;;;4195553;28;20117;-66
2023/04/06 07:25:53;;;;;;;7.63;6.95;;;16.60;54.20;;;;;;4207345;28;20051;-66
2023/04/06 07:28:34;;;;;;;6.97;6.40;;;16.60;54.00;;;;;;4207668;28;20128;-65
2023/04/06 07:31:15;;;;;;;8.30;6.50;;;16.50;54.40;;;;;;4207815;28;20399;-65
2023/04/06 07:33:57;;;;;;;7.32;6.63;;;16.50;54.60;;;;;;4207586;28;20498;-66
2023/04/06 07:36:38;;;;;;;8.52;6.97;;;16.40;54.60;;;;;;4207576;28;20055;-66
2023/04/06 07:39:19;;;;;;;8.35;7.25;;;16.40;55.10;;;;;;4208758;28;20125;-66
2023/04/06 07:42:02;;;;;;;7.43;6.72;;;16.30;55.40;;;;;;4207587;28;20450;-66
2023/04/06 07:44:43;;;;;;;7.80;7.00;;;16.30;55.60;;;;;;4196016;28;20125;-66
2023/04/06 07:47:24;;;;;;;;;;;16.30;55.80;;;;;;4207116;28;20050;-66
2023/04/06 07:50:06;;;;;;;8.80;6.63;;;16.30;55.90;;;;;;4208757;28;19946;-66
2023/04/06 07:52:48;;;;;;;7.85;7.10;;;16.30;56.30;;;;;;4207335;28;20482;-64
2023/04/06 07:55:29;;;;;;;8.35;7.13;;;16.30;56.20;;;;;;4196042;28;20398;-65
2023/04/06 07:58:12;;;;;;;8.02;7.28;;;16.30;56.40;;;;;;4208769;28;20100;-66
2023/04/06 08:00:54;;;;;;;7.70;7.00;;;16.20;56.20;;;;;;4207507;28;20521;-66
2023/04/06 08:03:35;;;;;;;8.00;7.20;;;16.20;55.80;;;;;;4208495;28;20070;-66
2023/04/06 08:06:16;;;;;;;;;;;16.20;55.50;;;;;;4209015;28;20074;-66
2023/04/06 08:08:58;;;;;;;7.90;6.95;;;16.20;55.80;;;;;;4208502;28;20290;-65
2023/04/06 08:11:39;;;;;;;7.70;7.10;;;16.10;55.80;;;;;;4207437;28;20858;-65
2023/04/06 08:14:21;;;;;;;7.72;6.82;;;16.00;55.20;;;;;;4208469;28;20063;-65
2023/04/06 08:17:02;;;;;;;7.90;7.10;;;16.00;55.40;;;;;;4208469;28;20498;-65
2023/04/06 08:19:45;;;;;;;8.95;7.45;;;15.90;56.00;;;;;;4208246;28;20213;-65
2023/04/06 08:22:29;;;;;;;8.98;7.22;;;15.80;56.10;;;;;;4208285;28;20055;-65
2023/04/06 08:25:10;;;;;;;7.82;7.13;;;15.80;56.20;;;;;;4208506;28;20170;-65
2023/04/06 08:27:51;;;;;;;8.48;7.20;;;15.70;56.30;;;;;;4208383;28;20180;-66
2023/04/06 08:30:33;;;;;;;8.07;7.30;;;15.70;56.30;;;;;;4208536;28;20110;-65
2023/04/06 08:33:14;;;;;;;8.10;7.15;;;15.60;56.20;;;;;;4208363;28;20050;-65
2023/04/06 08:35:55;;;;;;;9.02;6.78;;;15.60;56.20;;;;;;4208253;28;20043;-65
2023/04/06 08:38:37;;;;;;;8.52;7.28;;;15.60;56.20;;;;;;4207446;28;20181;-65
2023/04/06 08:41:18;;;;;;;10.18;7.82;;;15.60;56.50;;;;;;4208083;28;20153;-65
2023/04/06 08:44:01;;;;;;;8.77;7.38;;;15.50;56.20;;;;;;4208581;28;20125;-65
2023/04/06 08:46:43;;;;;;;8.00;6.55;;;15.50;55.50;;;;;;4208516;28;20152;-65
2023/04/06 08:49:24;;;;;;;8.13;7.07;;;15.50;55.60;;;;;;4208471;28;20051;-65
2023/04/06 08:52:07;;;;;;;7.50;6.80;;;15.50;55.60;;;;;;4208514;28;20833;-66
2023/04/06 08:54:48;;;;;;;9.40;7.75;;;15.40;55.50;;;;;;4191864;28;20286;-66
2023/04/06 08:57:29;;;;;;;;;;;15.50;55.80;;;;;;4192094;28;20042;-66
2023/04/06 09:00:12;;;;;;;10.45;8.25;;;15.40;55.60;;;;;;4191613;28;20050;-66
2023/04/06 09:02:56;;;;;;;9.07;8.07;;;15.40;55.90;;;;;;4191601;28;20055;-65
2023/04/06 09:05:37;;;;;;;8.63;7.75;;;15.40;55.50;;;;;;4191529;28;20113;-66
2023/04/06 09:08:18;;;;;;;12.93;7.30;;;15.40;55.20;;;;;;4190472;28;20047;-65
2023/04/06 09:10:59;;;;;;;7.93;7.13;;;15.40;54.90;;;;;;4191342;28;20532;-65
2023/04/06 09:13:50;;;;;;;9.00;7.33;;;15.40;55.60;;;;;;4191620;28;20158;-65
2023/04/06 09:16:39;;;;;;;;;;;15.40;55.70;;;;;;4191472;28;20055;-65
2023/04/06 09:19:22;;;;;;;9.18;7.70;;;15.40;56.40;;;;;;4191425;28;19931;-64
2023/04/06 09:22:04;;;;;;;9.63;8.63;;;15.40;56.30;;;;;;4178656;28;20059;-67
2023/04/06 09:24:47;;;;;;;10.57;8.05;;;15.40;55.50;;;;;;4191039;28;20047;-64
2023/04/06 09:27:32;;;;;;;8.95;8.05;;;15.40;54.80;;;;;;4191283;28;20063;-65
2023/04/06 09:30:15;;;;;;;9.82;8.18;;;15.50;54.70;;;;;;4205910;28;20051;-65
2023/04/06 09:32:58;;;;;;;9.43;8.32;;;15.50;54.70;;;;;;4210356;28;20394;-65
2023/04/06 09:35:50;;;;;;;9.32;7.90;;;15.50;54.50;;;;;;4210475;28;20422;-65
2023/04/06 09:38:32;;;;;;;8.95;8.02;;;15.50;54.00;;;;;;4210822;28;20059;-65
2023/04/06 09:41:21;;;;;;;7.95;7.15;;;15.50;54.20;;;;;;4210504;28;20486;-64
2023/04/06 09:44:06;;;;;;;10.40;8.27;;;15.50;54.40;;;;;;4209871;28;20087;-65
2023/04/06 09:46:48;;;;;;;9.80;7.93;;;15.50;53.80;;;;;;4210420;28;20063;-65
2023/04/06 09:49:39;;;;;;;;;;;15.50;53.50;;;;;;4210287;28;20196;-64
2023/04/06 09:52:25;;;;;;;9.48;7.63;;;15.50;53.90;;;;;;4209907;28;19939;-65
2023/04/06 09:55:07;;;;;;;10.02;7.45;;;15.50;54.60;;;;;;4208822;28;20054;-65
2023/04/06 09:57:58;;;;;;;9.10;8.18;;;15.50;54.40;;;;;;4200263;28;20348;-66
2023/04/06 10:00:45;;;;;;;11.57;8.40;;;15.50;53.80;;;;;;4210310;28;20505;-66
2023/04/06 10:03:37;;;;;;;10.00;8.32;;;15.60;53.40;;;;;;4210181;28;20047;-66
2023/04/06 10:06:22;;;;;;;10.15;8.30;;;15.50;53.20;;;;;;4209160;28;20145;-66
2023/04/06 10:09:07;;;;;;;11.77;8.75;;;15.50;53.80;;;;;;4210407;28;20134;-66
2023/04/06 10:11:50;;;;;;;10.13;8.60;;;15.50;53.40;;;;;;4214191;28;20047;-66
2023/04/06 10:14:31;;;;;;;11.45;9.43;;;15.50;53.40;;;;;;4202137;28;20050;-66
2023/04/06 10:17:12;;;;;;;12.13;9.70;;;15.50;53.70;;;;;;4193530;28;20190;-66
2023/04/06 10:19:56;;;;;;;15.65;10.43;;;15.40;53.90;;;;;;4208922;28;20046;-69
2023/04/06 10:22:44;;;;;;;13.70;10.20;;;15.50;54.80;;;;;;4227105;27;20381;-67
2023/04/06 10:25:30;;;;;;;13.45;10.00;;;15.50;54.40;;;;;;4227035;27;20042;-67
2023/04/06 10:28:12;;;;;;;12.45;9.63;;;15.50;54.40;;;;;;4220850;27;20076;-68
2023/04/06 10:30:58;;;;;;;15.50;10.25;;;15.50;54.30;;;;;;4226853;27;20049;-67
2023/04/06 10:33:40;;;;;;;19.98;10.15;;;15.50;53.30;;;;;;4227002;27;20124;-67
2023/04/06 10:36:25;;;;;;;11.82;9.40;;;15.50;53.10;;;;;;4224499;27;20058;-67
2023/04/06 10:39:06;;;;;;;12.93;10.77;;;15.50;53.20;;;;;;4226874;27;20046;-67
2023/04/06 10:41:49;;;;;;;13.93;11.73;;;15.50;53.60;;;;;;4226355;28;20054;-66
2023/04/06 10:44:29;;;;;;;17.73;11.57;;;15.50;53.30;;;;;;4207882;27;20526;-67
2023/04/06 10:47:18;;;;;;;15.60;11.60;;;15.50;53.10;;;;;;4210306;28;20059;-67
2023/04/06 10:49:59;;;;;;;13.23;10.65;;;15.50;53.00;;;;;;4210482;28;20047;-67
2023/04/06 10:52:40;;;;;;;12.35;10.48;;;15.50;53.70;;;;;;4214522;28;20051;-67
2023/04/06 10:55:23;;;;;;;16.00;11.70;;;15.50;53.90;;;;;;4202305;28;20073;-67
2023/04/06 10:58:06;;;;;;;;;;;15.50;53.90;;;;;;4198822;28;20395;-67
2023/04/06 11:00:49;;;;;;;17.52;13.85;;;15.50;54.20;;;;;;4211826;28;19950;-67
2023/04/06 11:03:32;;;;;;;14.65;11.68;;;15.50;55.00;;;;;;4211061;28;20055;-67
2023/04/06 11:06:19;;;;;;;20.38;14.00;;;15.50;54.30;;;;;;4222663;28;20046;-66
2023/04/06 11:09:00;;;;;;;17.00;13.55;;;15.50;53.70;;;;;;4213842;28;20051;-66
2023/04/06 11:11:41;;;;;;;19.58;12.63;;;15.50;54.30;;;;;;4210668;28;20058;-66
2023/04/06 11:14:24;;;;;;;15.88;12.68;;;15.60;54.10;;;;;;4210662;28;20077;-66
2023/04/06 11:17:05;;;;;;;20.52;12.65;;;15.60;54.20;;;;;;4217399;28;20127;-66
2023/04/06 11:19:46;;;;;;;19.83;13.60;;;15.60;54.80;;;;;;4225876;28;20085;-66
2023/04/06 11:22:27;;;;;;;17.67;14.40;;;15.60;54.60;;;;;;4226796;28;20057;-66
2023/04/06 11:25:09;;;;;;;23.85;14.60;;;15.60;54.80;;;;;;4226643;27;20046;-59
2023/04/06 11:27:55;;;;;;;20.10;14.25;;;15.70;54.70;;;;;;4224773;28;20066;-66
2023/04/06 11:30:38;;;;;;;20.13;15.52;;;15.70;55.00;;;;;;4226733;28;20053;-66
2023/04/06 11:33:22;;;;;;;19.58;15.43;;;15.70;54.80;;;;;;4213011;28;20054;-66
2023/04/06 11:36:03;;;;;;;22.58;15.40;;;15.80;55.20;;;;;;4210009;28;20058;-66
2023/04/06 11:38:44;;;;;;;19.58;14.52;;;15.70;54.90;;;;;;4210082;28;20054;-66
2023/04/06 11:41:29;;;;;;;24.15;15.55;;;15.70;54.80;;;;;;4192925;28;20070;-66
2023/04/06 11:44:10;;;;;;;20.02;15.57;;;15.80;54.90;;;;;;4201924;28;20407;-65
2023/04/06 11:46:57;;;;;;;18.75;14.75;;;15.80;54.60;;;;;;4209125;28;20129;-66
2023/04/06 11:49:40;;;;;;;20.30;15.38;;;15.80;54.60;;;;;;4209122;28;20047;-66
2023/04/06 11:52:23;;;;;;;22.52;15.38;;;15.80;55.10;;;;;;4196233;28;20096;-66
2023/04/06 11:55:13;;;;;;;21.13;15.27;;;15.80;54.30;;;;;;4207471;28;20055;-66
2023/04/06 11:57:54;;;;;;;19.13;15.55;;;15.80;53.90;;;;;;4207852;28;20513;-66
2023/04/06 12:00:36;;;;;;;26.15;17.58;;;15.90;54.00;;;;;;4207559;28;20144;-66
2023/04/06 12:03:19;;;;;;;21.45;15.43;;;15.90;53.80;;;;;;4209673;28;20130;-66
2023/04/06 12:05:59;;;;;;;21.10;16.50;;;15.90;54.10;;;;;;4194864;28;20044;-66
2023/04/06 12:08:40;;;;;;;23.90;16.27;;;15.90;54.10;;;;;;4190712;28;20051;-66
2023/04/06 12:11:21;;;;;;;19.90;15.38;;;15.90;54.30;;;;;;4191579;28;20081;-66
2023/04/06 12:14:04;;;;;;;22.95;16.65;;;15.90;54.50;;;;;;4223776;27;20097;-66
2023/04/06 12:16:45;;;;;;;23.10;17.05;;;16.00;54.60;;;;;;4224943;28;20055;-66
2023/04/06 12:19:28;;;;;;;24.13;17.38;;;15.90;54.10;;;;;;4214058;28;20121;-66
2023/04/06 12:22:10;;;;;;;23.60;17.40;;;16.00;54.60;;;;;;4194495;28;20059;-66
2023/04/06 12:24:51;;;;;;;22.42;17.25;;;16.00;54.30;;;;;;4207207;28;20074;-66
2023/04/06 12:27:32;;;;;;;23.88;18.02;;;16.00;54.30;;;;;;4219112;28;20551;-66
2023/04/06 12:30:13;;;;;;;25.25;17.10;;;16.10;54.20;;;;;;4225190;28;20486;-66
2023/04/06 12:32:54;;;;;;;22.98;17.02;;;16.10;54.20;;;;;;4216386;28;20055;-67
2023/04/06 12:35:38;;;;;;;24.25;18.88;;;16.10;54.10;;;;;;4207907;28;20116;-67
2023/04/06 12:38:20;;;;;;;26.52;18.88;;;16.10;54.30;;;;;;4208224;28;20050;-66
2023/04/06 12:41:01;;;;;;;24.73;18.85;;;16.10;54.20;;;;;;4208547;28;20715;-66
2023/04/06 12:43:44;;;;;;;22.80;16.10;;;16.10;53.90;;;;;;4217582;28;20054;-66
2023/04/06 12:46:25;;;;;;;26.65;18.73;;;16.20;53.90;;;;;;4225205;28;20172;-66
2023/04/06 12:49:07;;;;;;;25.98;18.05;;;16.20;54.50;;;;;;4223701;28;20077;-66
2023/04/06 12:51:50;;;;;;;25.90;18.85;;;16.20;54.40;;;;;;4208253;28;20413;-66
2023/04/06 12:54:31;;;;;;;29.58;19.30;;;16.20;54.10;;;;;;4218020;28;20059;-66
2023/04/06 12:57:12;;;;;;;27.00;18.00;;;16.20;54.10;;;;;;4224779;28;20092;-66
2023/04/06 12:59:53;;;;;;;28.33;20.08;;;16.20;54.40;;;;;;4223937;28;20039;-66
2023/04/06 13:02:34;;;;;;;26.05;18.35;;;16.20;54.20;;;;;;4218286;28;20055;-66
2023/04/06 13:05:18;;;;;;;25.58;18.83;;;16.20;53.50;;;;;;4209556;28;20043;-66
2023/04/06 13:08:00;;;;;;;24.80;18.35;;;16.20;53.80;;;;;;4211186;28;20055;-66
2023/04/06 13:10:44;;;;;;;29.13;19.58;;;16.20;53.90;;;;;;4204700;28;20705;-66
2023/04/06 13:13:27;;;;;;;24.40;19.40;;;16.20;53.70;;;;;;4198676;28;20079;-66
2023/04/06 13:16:09;;;;;;;25.73;18.70;;;16.20;54.10;;;;;;4211258;28;20051;-66
2023/04/06 13:18:50;;;;;;;26.75;19.00;;;16.20;54.20;;;;;;4210721;28;20055;-66
2023/04/06 13:21:31;;;;;;;26.35;18.83;;;16.20;53.90;;;;;;4210053;28;20108;-66
2023/04/06 13:24:13;;;;;;;23.10;18.17;;;16.20;53.80;;;;;;4220964;28;20184;-68
2023/04/06 13:26:56;;;;;;;27.77;20.40;;;16.20;54.20;;;;;;4227477;27;20051;-67
2023/04/06 13:29:37;;;;;;;;;;;16.20;54.70;;;;;;4195054;28;20075;-66
2023/04/06 13:32:19;;;;;;;27.17;20.15;;;16.20;55.20;;;;;;4197454;28;19985;-65
2023/04/06 13:35:00;;;;;;;27.42;20.45;;;16.20;55.50;;;;;;4197121;28;20188;-66
2023/04/06 13:37:41;;;;;;;21.75;17.85;;;16.20;54.90;;;;;;4210314;28;20047;-65
2023/04/06 13:40:23;;;;;;;25.38;18.60;;;16.20;54.80;;;;;;4210639;28;20108;-65
2023/04/06 13:43:04;;;;;;;28.25;19.65;;;16.20;54.70;;;;;;4210509;28;20124;-65
2023/04/06 13:45:50;;;;;;;27.80;19.48;;;16.20;54.80;;;;;;4209871;28;20580;-64
2023/04/06 13:48:31;;;;;;;26.55;19.52;;;16.20;54.90;;;;;;4208749;28;20050;-64
2023/04/06 13:51:13;;;;;;;23.60;18.23;;;16.20;55.10;;;;;;4193201;28;20111;-65
2023/04/06 13:53:54;;;;;;;;;;;16.20;54.80;;;;;;4192258;28;20408;-66
2023/04/06 13:56:36;;;;;;;27.25;18.98;;;16.20;55.40;;;;;;4192875;28;19927;-65
2023/04/06 13:59:17;;;;;;;24.33;18.75;;;16.20;56.80;;;;;;4199647;28;20198;-61
2023/04/06 14:01:58;;;;;;;28.15;19.00;;;16.20;55.60;;;;;;4193114;28;20574;-60
2023/04/06 14:04:39;;;;;;;27.73;19.42;;;16.20;55.30;;;;;;4192804;28;20211;-61
2023/04/06 14:07:22;;;;;;;27.42;19.20;;;16.20;55.20;;;;;;4192977;28;20060;-62